SLRI/RIB METAR and TAF weather

Enter ICAO airport designator
Station Type Date Time Source
SLRI METAR 2019/10/22 23:00 UTC NOAA

SLRI 222300Z 00000KT 8000 VCSH SCT015 FEW020CB OVC200 26/23 Q1008


Station Type Date Time Source
SLRI Decoded METAR 2019/10/22 23:00 UTC NOAA

Riberalta, Bolivia (SLRI) 11-00S 066-07W
Oct 22, 2019 - 07:00 PM EDT / 2019.10.22 2300 UTC
Wind: Calm:0
Visibility: 4 mile(s):0
Sky conditions: overcast
Weather: showers in the vicinity; Cumulonimbus clouds observed
Temperature: 78 F (26 C)
Dew Point: 73 F (23 C)
Relative Humidity: 83%
Pressure (altimeter): 29.77 in. Hg (1008 hPa)
ob: SLRI 222300Z 00000KT 8000 VCSH SCT015 FEW020CB OVC200 26/23 Q1008
cycle: 23

Station Type Date Time Source
SLRI TAF 2015/11/18 00:29 UTC NOAA

TAF SLRI 182200Z 1900/1924 00000KT 9999 FEW015 TX37/1919Z TN23/1910Z
BECMG 1912/1914 33011KT SCT020
TEMPO 1919/1922 8000 VCSH FEW020 FEW023CB BKN080

Example: see airport list